V.C. Bird, Antigua

4:48 PM AST on August 04, 2015 (GMT -0400)
V C Bird International | | Change Station
CLOSE
Current Station
Airport
Location: V.C. Bird,
Elevation: 46 ft
Nearby Weather Stations

Elev 46 ft 17.12 °N, 61.78 °W | Updated 48 minutes ago

Partly Cloudy
Partly Cloudy
86 °F
Feels Like 90 °F
N
12
Wind Variable Wind from East

Today
High -- | Low -- °F
--% Chance of Precip.
Yesterday
High -- | Low -- °F
Precip. -- in
5:47 AM 6:38 PM
Waning Gibbous, 74% visible
Pressure 30.01 in
Visibility 6.2 miles
Clouds Few 2000 ft
Heat Index 90 °F
Dew Point 70 °F
Humidity 58%
Rainfall 0.00 in
Snow Depth Not available.
UV 6 out of 12
Pollen Not available.
Air Quality Not available.
Flu Activity Not available.
METAR TAPA 042000Z 09010KT 9999 FEW020 30/21 Q1016 NOSIG

More Conditions Fewer Conditions

Pressure 30.01 in
Visibility 6.2 miles
Clouds Few 2000 ft
Heat Index 90 °F
Dew Point 70 °F
Humidity 58%
Rainfall 0.00 in
Snow Depth Not available.
UV 6 out of 12
Pollen Not available.
Air Quality Not available.
Flu Activity Not available.
METAR TAPA 042000Z 09010KT 9999 FEW020 30/21 Q1016 NOSIG

More Conditions Fewer Conditions

10-Day Weather Forecast

×

Almanac

Astronomy

Aug. 04, 2015 Rise Set
Actual Time
Civil Twilight
Nautical Twilight
Astronomical Twilight
Moon
Length of Visible Light
Length of Day
Tomorrow will be .
, % of the Moon is Illuminated

Today's Extremes

Country Highs Country Lows

Community

WunderPhotos

Upload Photos

1,843,974 photos uploaded!

WunderBlogs® & News

Nearby

Air Quality

  Air Quality AQ Index Pollutant
Not available.

Snow Depth

Station Depth Elevation

Earthquake Activity

City Distance Mag. Time & Date
Minimum magnitude displayed is 2.5.

Coastal Water Temperatures

Place Temperature

Stations

Nearby Weather Stations

Station Location Temp. Windchill Dew Point Humidity Wind Precip. Elev Updated Type